sensor_id;sensor_type;location;lat;lon;timestamp;P1;durP1;ratioP1;P2;durP2;ratioP2
35592;SDS011;64447;52.140;5.602;2022-12-07T00:01:10;10.43;;;6.28;;
35592;SDS011;64447;52.140;5.602;2022-12-07T00:03:41;8.90;;;5.57;;
35592;SDS011;64447;52.140;5.602;2022-12-07T00:06:09;10.38;;;6.60;;
35592;SDS011;64447;52.140;5.602;2022-12-07T00:08:36;8.27;;;5.60;;
35592;SDS011;64447;52.140;5.602;2022-12-07T00:11:05;9.40;;;5.47;;
35592;SDS011;64447;52.140;5.602;2022-12-07T00:13:32;9.05;;;5.85;;
35592;SDS011;64447;52.140;5.602;2022-12-07T00:16:00;13.25;;;6.22;;
35592;SDS011;64447;52.140;5.602;2022-12-07T00:18:30;10.95;;;5.97;;
35592;SDS011;64447;52.140;5.602;2022-12-07T00:21:05;9.85;;;5.97;;
35592;SDS011;64447;52.140;5.602;2022-12-07T00:23:33;8.93;;;5.38;;
35592;SDS011;64447;52.140;5.602;2022-12-07T00:26:03;7.45;;;5.22;;
35592;SDS011;64447;52.140;5.602;2022-12-07T00:28:32;11.43;;;5.30;;
35592;SDS011;64447;52.140;5.602;2022-12-07T00:31:11;8.05;;;4.80;;
35592;SDS011;64447;52.140;5.602;2022-12-07T00:33:39;6.90;;;4.90;;
35592;SDS011;64447;52.140;5.602;2022-12-07T00:36:06;9.77;;;5.53;;
35592;SDS011;64447;52.140;5.602;2022-12-07T00:38:34;7.82;;;4.35;;
35592;SDS011;64447;52.140;5.602;2022-12-07T00:44:59;11.50;;;5.45;;
35592;SDS011;64447;52.140;5.602;2022-12-07T00:47:24;8.52;;;5.35;;
35592;SDS011;64447;52.140;5.602;2022-12-07T00:49:50;8.80;;;5.40;;
35592;SDS011;64447;52.140;5.602;2022-12-07T00:52:16;8.82;;;5.43;;
35592;SDS011;64447;52.140;5.602;2022-12-07T00:54:41;11.68;;;6.35;;
35592;SDS011;64447;52.140;5.602;2022-12-07T00:57:07;10.77;;;5.25;;
35592;SDS011;64447;52.140;5.602;2022-12-07T00:59:32;10.85;;;5.97;;
35592;SDS011;64447;52.140;5.602;2022-12-07T01:01:58;8.63;;;5.88;;
35592;SDS011;64447;52.140;5.602;2022-12-07T01:04:23;11.68;;;6.53;;
35592;SDS011;64447;52.140;5.602;2022-12-07T01:06:49;9.27;;;6.35;;
35592;SDS011;64447;52.140;5.602;2022-12-07T01:09:14;12.45;;;6.47;;
35592;SDS011;64447;52.140;5.602;2022-12-07T01:11:40;9.68;;;5.95;;
35592;SDS011;64447;52.140;5.602;2022-12-07T01:14:06;10.65;;;5.40;;
35592;SDS011;64447;52.140;5.602;2022-12-07T01:16:31;11.32;;;6.40;;
35592;SDS011;64447;52.140;5.602;2022-12-07T01:18:58;9.27;;;6.35;;
35592;SDS011;64447;52.140;5.602;2022-12-07T01:21:26;14.20;;;7.60;;
35592;SDS011;64447;52.140;5.602;2022-12-07T01:23:54;13.40;;;7.40;;
35592;SDS011;64447;52.140;5.602;2022-12-07T01:26:22;11.77;;;6.85;;
35592;SDS011;64447;52.140;5.602;2022-12-07T01:28:49;9.98;;;7.10;;
35592;SDS011;64447;52.140;5.602;2022-12-07T01:31:16;10.02;;;6.88;;
35592;SDS011;64447;52.140;5.602;2022-12-07T01:33:44;11.95;;;7.03;;
35592;SDS011;64447;52.140;5.602;2022-12-07T01:38:42;10.75;;;6.93;;
35592;SDS011;64447;52.140;5.602;2022-12-07T01:44:30;10.45;;;6.18;;
35592;SDS011;64447;52.140;5.602;2022-12-07T01:47:01;10.23;;;6.55;;
35592;SDS011;64447;52.140;5.602;2022-12-07T01:49:38;11.23;;;6.82;;
35592;SDS011;64447;52.140;5.602;2022-12-07T01:52:25;10.30;;;5.65;;
35592;SDS011;64447;52.140;5.602;2022-12-07T01:54:56;13.25;;;6.85;;
35592;SDS011;64447;52.140;5.602;2022-12-07T01:57:25;13.20;;;6.22;;
35592;SDS011;64447;52.140;5.602;2022-12-07T01:59:51;10.65;;;5.53;;
35592;SDS011;64447;52.140;5.602;2022-12-07T02:02:23;12.38;;;6.30;;
35592;SDS011;64447;52.140;5.602;2022-12-07T02:05:03;12.85;;;6.10;;
35592;SDS011;64447;52.140;5.602;2022-12-07T02:07:30;10.90;;;5.43;;
35592;SDS011;64447;52.140;5.602;2022-12-07T02:09:57;10.65;;;5.03;;
35592;SDS011;64447;52.140;5.602;2022-12-07T02:12:51;10.15;;;4.72;;
35592;SDS011;64447;52.140;5.602;2022-12-07T02:15:20;11.27;;;5.10;;
35592;SDS011;64447;52.140;5.602;2022-12-07T02:17:52;13.88;;;5.47;;
35592;SDS011;64447;52.140;5.602;2022-12-07T02:20:55;12.43;;;4.40;;
35592;SDS011;64447;52.140;5.602;2022-12-07T02:23:48;6.63;;;4.20;;
35592;SDS011;64447;52.140;5.602;2022-12-07T02:26:38;8.18;;;4.07;;
35592;SDS011;64447;52.140;5.602;2022-12-07T02:29:38;7.65;;;3.40;;
35592;SDS011;64447;52.140;5.602;2022-12-07T02:32:13;7.47;;;3.50;;
35592;SDS011;64447;52.140;5.602;2022-12-07T02:34:58;7.63;;;3.60;;
35592;SDS011;64447;52.140;5.602;2022-12-07T02:37:38;8.13;;;3.58;;
35592;SDS011;64447;52.140;5.602;2022-12-07T02:44:00;8.88;;;3.17;;
35592;SDS011;64447;52.140;5.602;2022-12-07T02:46:30;9.60;;;3.00;;
35592;SDS011;64447;52.140;5.602;2022-12-07T02:49:07;10.93;;;3.10;;
35592;SDS011;64447;52.140;5.602;2022-12-07T02:51:38;11.18;;;2.97;;
35592;SDS011;64447;52.140;5.602;2022-12-07T02:54:11;6.32;;;2.50;;
35592;SDS011;64447;52.140;5.602;2022-12-07T03:00:19;8.48;;;2.53;;
35592;SDS011;64447;52.140;5.602;2022-12-07T03:02:58;6.13;;;2.40;;
35592;SDS011;64447;52.140;5.602;2022-12-07T03:05:44;7.90;;;3.38;;
35592;SDS011;64447;52.140;5.602;2022-12-07T03:11:10;7.78;;;2.40;;
35592;SDS011;64447;52.140;5.602;2022-12-07T03:16:14;6.28;;;2.50;;
35592;SDS011;64447;52.140;5.602;2022-12-07T03:18:52;7.72;;;2.55;;
35592;SDS011;64447;52.140;5.602;2022-12-07T03:21:29;7.70;;;2.78;;
35592;SDS011;64447;52.140;5.602;2022-12-07T03:24:00;8.30;;;2.70;;
35592;SDS011;64447;52.140;5.602;2022-12-07T03:26:34;5.30;;;2.58;;
35592;SDS011;64447;52.140;5.602;2022-12-07T03:31:54;6.95;;;2.63;;
35592;SDS011;64447;52.140;5.602;2022-12-07T03:34:42;6.63;;;2.65;;
35592;SDS011;64447;52.140;5.602;2022-12-07T03:37:17;6.70;;;3.05;;
35592;SDS011;64447;52.140;5.602;2022-12-07T03:43:16;5.85;;;2.92;;
35592;SDS011;64447;52.140;5.602;2022-12-07T03:45:44;8.18;;;3.00;;
35592;SDS011;64447;52.140;5.602;2022-12-07T03:48:32;5.93;;;3.15;;
35592;SDS011;64447;52.140;5.602;2022-12-07T03:51:24;5.75;;;3.03;;
35592;SDS011;64447;52.140;5.602;2022-12-07T03:54:05;6.60;;;3.08;;
35592;SDS011;64447;52.140;5.602;2022-12-07T04:00:00;5.82;;;2.90;;
35592;SDS011;64447;52.140;5.602;2022-12-07T04:02:31;8.25;;;3.30;;
35592;SDS011;64447;52.140;5.602;2022-12-07T04:04:57;7.82;;;3.63;;
35592;SDS011;64447;52.140;5.602;2022-12-07T04:07:24;5.97;;;2.88;;
35592;SDS011;64447;52.140;5.602;2022-12-07T04:09:50;7.05;;;2.83;;
35592;SDS011;64447;52.140;5.602;2022-12-07T04:12:15;5.40;;;3.08;;
35592;SDS011;64447;52.140;5.602;2022-12-07T04:14:41;5.32;;;2.90;;
35592;SDS011;64447;52.140;5.602;2022-12-07T04:17:08;7.03;;;3.53;;
35592;SDS011;64447;52.140;5.602;2022-12-07T04:19:33;7.18;;;2.83;;
35592;SDS011;64447;52.140;5.602;2022-12-07T04:22:03;5.43;;;3.65;;
35592;SDS011;64447;52.140;5.602;2022-12-07T04:24:29;5.13;;;2.60;;
35592;SDS011;64447;52.140;5.602;2022-12-07T04:30:17;9.15;;;3.65;;
35592;SDS011;64447;52.140;5.602;2022-12-07T04:32:43;9.30;;;3.85;;
35592;SDS011;64447;52.140;5.602;2022-12-07T04:35:09;7.20;;;3.03;;
35592;SDS011;64447;52.140;5.602;2022-12-07T04:37:34;6.50;;;3.33;;
35592;SDS011;64447;52.140;5.602;2022-12-07T04:40:00;9.43;;;3.38;;
35592;SDS011;64447;52.140;5.602;2022-12-07T04:42:26;5.50;;;3.05;;
35592;SDS011;64447;52.140;5.602;2022-12-07T04:44:51;5.63;;;2.85;;
35592;SDS011;64447;52.140;5.602;2022-12-07T04:47:17;6.38;;;3.15;;
35592;SDS011;64447;52.140;5.602;2022-12-07T04:49:42;8.05;;;3.05;;
35592;SDS011;64447;52.140;5.602;2022-12-07T04:52:08;6.00;;;2.95;;
35592;SDS011;64447;52.140;5.602;2022-12-07T04:54:33;8.02;;;3.47;;
35592;SDS011;64447;52.140;5.602;2022-12-07T05:00:21;8.02;;;3.70;;
35592;SDS011;64447;52.140;5.602;2022-12-07T05:02:47;7.05;;;3.33;;
35592;SDS011;64447;52.140;5.602;2022-12-07T05:05:12;6.43;;;3.20;;
35592;SDS011;64447;52.140;5.602;2022-12-07T05:07:38;5.32;;;3.10;;
35592;SDS011;64447;52.140;5.602;2022-12-07T05:10:04;6.32;;;3.22;;
35592;SDS011;64447;52.140;5.602;2022-12-07T05:12:30;5.15;;;2.92;;
35592;SDS011;64447;52.140;5.602;2022-12-07T05:14:56;10.80;;;3.40;;
35592;SDS011;64447;52.140;5.602;2022-12-07T05:17:21;8.10;;;3.50;;
35592;SDS011;64447;52.140;5.602;2022-12-07T05:19:47;9.63;;;3.33;;
35592;SDS011;64447;52.140;5.602;2022-12-07T05:22:12;9.25;;;4.18;;
35592;SDS011;64447;52.140;5.602;2022-12-07T05:24:39;6.82;;;3.80;;
35592;SDS011;64447;52.140;5.602;2022-12-07T05:30:26;6.75;;;4.10;;
35592;SDS011;64447;52.140;5.602;2022-12-07T05:32:52;7.70;;;4.28;;
35592;SDS011;64447;52.140;5.602;2022-12-07T05:35:18;8.30;;;3.90;;
35592;SDS011;64447;52.140;5.602;2022-12-07T05:37:44;9.38;;;3.88;;
35592;SDS011;64447;52.140;5.602;2022-12-07T05:40:10;10.45;;;4.05;;
35592;SDS011;64447;52.140;5.602;2022-12-07T05:42:36;12.57;;;4.25;;
35592;SDS011;64447;52.140;5.602;2022-12-07T05:45:02;6.53;;;3.53;;
35592;SDS011;64447;52.140;5.602;2022-12-07T05:47:28;9.98;;;3.35;;
35592;SDS011;64447;52.140;5.602;2022-12-07T05:49:54;7.80;;;3.72;;
35592;SDS011;64447;52.140;5.602;2022-12-07T05:52:20;6.45;;;3.47;;
35592;SDS011;64447;52.140;5.602;2022-12-07T05:54:45;7.65;;;3.97;;
35592;SDS011;64447;52.140;5.602;2022-12-07T06:00:33;8.68;;;3.83;;
35592;SDS011;64447;52.140;5.602;2022-12-07T06:02:59;8.43;;;4.72;;
35592;SDS011;64447;52.140;5.602;2022-12-07T06:05:25;7.35;;;3.90;;
35592;SDS011;64447;52.140;5.602;2022-12-07T06:07:50;8.38;;;4.45;;
35592;SDS011;64447;52.140;5.602;2022-12-07T06:10:16;6.72;;;3.60;;
35592;SDS011;64447;52.140;5.602;2022-12-07T06:12:41;7.53;;;3.67;;
35592;SDS011;64447;52.140;5.602;2022-12-07T06:15:08;10.02;;;3.70;;
35592;SDS011;64447;52.140;5.602;2022-12-07T06:17:35;9.70;;;3.80;;
35592;SDS011;64447;52.140;5.602;2022-12-07T06:20:01;4.68;;;1.90;;
35592;SDS011;64447;52.140;5.602;2022-12-07T06:22:27;5.78;;;2.80;;
35592;SDS011;64447;52.140;5.602;2022-12-07T06:24:52;6.60;;;2.38;;
35592;SDS011;64447;52.140;5.602;2022-12-07T06:30:39;6.07;;;2.80;;
35592;SDS011;64447;52.140;5.602;2022-12-07T06:33:05;6.32;;;2.63;;
35592;SDS011;64447;52.140;5.602;2022-12-07T06:35:32;8.35;;;2.80;;
35592;SDS011;64447;52.140;5.602;2022-12-07T06:37:58;9.70;;;3.53;;
35592;SDS011;64447;52.140;5.602;2022-12-07T06:40:23;5.85;;;2.88;;
35592;SDS011;64447;52.140;5.602;2022-12-07T06:42:49;8.88;;;3.80;;
35592;SDS011;64447;52.140;5.602;2022-12-07T06:45:15;7.97;;;3.90;;
35592;SDS011;64447;52.140;5.602;2022-12-07T06:47:40;9.85;;;4.50;;
35592;SDS011;64447;52.140;5.602;2022-12-07T06:50:06;10.07;;;4.55;;
35592;SDS011;64447;52.140;5.602;2022-12-07T06:52:32;8.27;;;4.22;;
35592;SDS011;64447;52.140;5.602;2022-12-07T06:54:59;11.70;;;3.60;;
35592;SDS011;64447;52.140;5.602;2022-12-07T07:00:47;6.57;;;3.35;;
35592;SDS011;64447;52.140;5.602;2022-12-07T07:03:14;9.63;;;3.55;;
35592;SDS011;64447;52.140;5.602;2022-12-07T07:05:40;6.40;;;3.20;;
35592;SDS011;64447;52.140;5.602;2022-12-07T07:08:06;7.78;;;3.30;;
35592;SDS011;64447;52.140;5.602;2022-12-07T07:10:31;6.00;;;3.20;;
35592;SDS011;64447;52.140;5.602;2022-12-07T07:12:57;4.70;;;2.45;;
35592;SDS011;64447;52.140;5.602;2022-12-07T07:15:22;6.38;;;3.20;;
35592;SDS011;64447;52.140;5.602;2022-12-07T07:17:48;7.50;;;3.22;;
35592;SDS011;64447;52.140;5.602;2022-12-07T07:20:14;9.35;;;3.33;;
35592;SDS011;64447;52.140;5.602;2022-12-07T07:22:39;8.25;;;3.45;;
35592;SDS011;64447;52.140;5.602;2022-12-07T07:25:05;6.18;;;3.88;;
35592;SDS011;64447;52.140;5.602;2022-12-07T07:30:53;9.02;;;3.88;;
35592;SDS011;64447;52.140;5.602;2022-12-07T07:33:18;8.05;;;3.20;;
35592;SDS011;64447;52.140;5.602;2022-12-07T07:35:44;5.68;;;3.25;;
35592;SDS011;64447;52.140;5.602;2022-12-07T07:38:09;5.43;;;3.38;;
35592;SDS011;64447;52.140;5.602;2022-12-07T07:40:35;5.95;;;3.38;;
35592;SDS011;64447;52.140;5.602;2022-12-07T07:43:00;9.65;;;4.13;;
35592;SDS011;64447;52.140;5.602;2022-12-07T07:45:26;7.57;;;3.63;;
35592;SDS011;64447;52.140;5.602;2022-12-07T07:47:52;8.63;;;4.43;;
35592;SDS011;64447;52.140;5.602;2022-12-07T07:50:18;6.72;;;3.55;;
35592;SDS011;64447;52.140;5.602;2022-12-07T07:52:44;9.15;;;3.90;;
35592;SDS011;64447;52.140;5.602;2022-12-07T07:55:10;8.88;;;4.43;;
35592;SDS011;64447;52.140;5.602;2022-12-07T08:01:05;9.30;;;3.78;;
35592;SDS011;64447;52.140;5.602;2022-12-07T08:03:31;8.35;;;3.88;;
35592;SDS011;64447;52.140;5.602;2022-12-07T08:05:57;8.70;;;4.97;;
35592;SDS011;64447;52.140;5.602;2022-12-07T08:08:22;10.13;;;5.18;;
35592;SDS011;64447;52.140;5.602;2022-12-07T08:10:48;11.98;;;4.95;;
35592;SDS011;64447;52.140;5.602;2022-12-07T08:13:16;9.38;;;5.22;;
35592;SDS011;64447;52.140;5.602;2022-12-07T08:15:43;9.30;;;5.55;;
35592;SDS011;64447;52.140;5.602;2022-12-07T08:18:10;9.73;;;5.45;;
35592;SDS011;64447;52.140;5.602;2022-12-07T08:20:36;14.35;;;6.00;;
35592;SDS011;64447;52.140;5.602;2022-12-07T08:23:03;13.57;;;5.90;;
35592;SDS011;64447;52.140;5.602;2022-12-07T08:25:29;8.77;;;4.93;;
35592;SDS011;64447;52.140;5.602;2022-12-07T08:31:17;9.25;;;4.57;;
35592;SDS011;64447;52.140;5.602;2022-12-07T08:33:44;12.95;;;5.47;;
35592;SDS011;64447;52.140;5.602;2022-12-07T08:36:12;11.80;;;6.43;;
35592;SDS011;64447;52.140;5.602;2022-12-07T08:38:38;12.38;;;6.20;;
35592;SDS011;64447;52.140;5.602;2022-12-07T08:41:05;13.77;;;6.05;;
35592;SDS011;64447;52.140;5.602;2022-12-07T08:43:31;17.55;;;8.20;;
35592;SDS011;64447;52.140;5.602;2022-12-07T08:46:06;11.65;;;7.10;;
35592;SDS011;64447;52.140;5.602;2022-12-07T08:48:47;13.60;;;6.15;;
35592;SDS011;64447;52.140;5.602;2022-12-07T08:51:22;10.40;;;4.10;;
35592;SDS011;64447;52.140;5.602;2022-12-07T08:53:49;7.80;;;4.18;;
35592;SDS011;64447;52.140;5.602;2022-12-07T08:56:15;8.65;;;4.13;;
35592;SDS011;64447;52.140;5.602;2022-12-07T08:58:41;9.18;;;3.53;;
35592;SDS011;64447;52.140;5.602;2022-12-07T09:01:07;7.45;;;3.70;;
35592;SDS011;64447;52.140;5.602;2022-12-07T09:03:33;9.25;;;3.58;;
35592;SDS011;64447;52.140;5.602;2022-12-07T09:05:59;9.50;;;4.28;;
35592;SDS011;64447;52.140;5.602;2022-12-07T09:08:26;11.52;;;4.90;;
35592;SDS011;64447;52.140;5.602;2022-12-07T09:10:56;9.73;;;4.95;;
35592;SDS011;64447;52.140;5.602;2022-12-07T09:13:22;11.50;;;5.00;;
35592;SDS011;64447;52.140;5.602;2022-12-07T09:15:47;9.82;;;5.43;;
35592;SDS011;64447;52.140;5.602;2022-12-07T09:18:13;10.68;;;5.35;;
35592;SDS011;64447;52.140;5.602;2022-12-07T09:20:39;9.77;;;4.82;;
35592;SDS011;64447;52.140;5.602;2022-12-07T09:23:05;11.80;;;5.40;;
35592;SDS011;64447;52.140;5.602;2022-12-07T09:25:32;13.00;;;5.57;;
35592;SDS011;64447;52.140;5.602;2022-12-07T09:31:20;13.27;;;5.57;;
35592;SDS011;64447;52.140;5.602;2022-12-07T09:33:45;11.13;;;4.68;;
35592;SDS011;64447;52.140;5.602;2022-12-07T09:36:11;14.30;;;4.90;;
35592;SDS011;64447;52.140;5.602;2022-12-07T09:38:36;10.18;;;5.00;;
35592;SDS011;64447;52.140;5.602;2022-12-07T09:41:05;8.25;;;3.90;;
35592;SDS011;64447;52.140;5.602;2022-12-07T09:43:32;9.73;;;4.20;;
35592;SDS011;64447;52.140;5.602;2022-12-07T09:45:59;9.32;;;3.47;;
35592;SDS011;64447;52.140;5.602;2022-12-07T09:48:36;10.40;;;4.05;;
35592;SDS011;64447;52.140;5.602;2022-12-07T09:51:10;10.63;;;3.97;;
35592;SDS011;64447;52.140;5.602;2022-12-07T09:53:43;8.60;;;4.40;;
35592;SDS011;64447;52.140;5.602;2022-12-07T09:56:13;15.30;;;3.97;;
35592;SDS011;64447;52.140;5.602;2022-12-07T09:58:40;11.32;;;4.15;;
35592;SDS011;64447;52.140;5.602;2022-12-07T10:03:32;7.93;;;4.18;;
35592;SDS011;64447;52.140;5.602;2022-12-07T10:05:58;8.40;;;4.07;;
35592;SDS011;64447;52.140;5.602;2022-12-07T10:08:24;10.23;;;4.00;;
35592;SDS011;64447;52.140;5.602;2022-12-07T10:10:54;10.32;;;3.78;;
35592;SDS011;64447;52.140;5.602;2022-12-07T10:16:43;4.30;;;3.13;;
35592;SDS011;64447;52.140;5.602;2022-12-07T10:22:05;9.18;;;4.15;;
35592;SDS011;64447;52.140;5.602;2022-12-07T10:24:35;9.35;;;3.85;;
35592;SDS011;64447;52.140;5.602;2022-12-07T10:27:04;10.98;;;3.47;;
35592;SDS011;64447;52.140;5.602;2022-12-07T10:29:42;9.07;;;3.97;;
35592;SDS011;64447;52.140;5.602;2022-12-07T10:34:40;7.63;;;4.65;;
35592;SDS011;64447;52.140;5.602;2022-12-07T10:37:13;7.78;;;3.75;;
35592;SDS011;64447;52.140;5.602;2022-12-07T10:39:52;6.32;;;3.60;;
35592;SDS011;64447;52.140;5.602;2022-12-07T10:45:08;22.92;;;6.55;;
35592;SDS011;64447;52.140;5.602;2022-12-07T10:50:29;66.22;;;12.35;;
35592;SDS011;64447;52.140;5.602;2022-12-07T10:58:37;6.93;;;2.90;;
35592;SDS011;64447;52.140;5.602;2022-12-07T11:26:22;51.38;;;10.02;;
35592;SDS011;64447;52.140;5.602;2022-12-07T11:33:04;12.45;;;3.13;;
35592;SDS011;64447;52.140;5.602;2022-12-07T11:35:40;33.95;;;7.68;;
35592;SDS011;64447;52.140;5.602;2022-12-07T11:38:15;31.60;;;6.68;;
35592;SDS011;64447;52.140;5.602;2022-12-07T11:40:45;14.15;;;3.55;;
35592;SDS011;64447;52.140;5.602;2022-12-07T11:47:17;8.30;;;3.97;;
35592;SDS011;64447;52.140;5.602;2022-12-07T11:49:27;11.93;;;4.65;;
35592;SDS011;64447;52.140;5.602;2022-12-07T11:52:02;8.10;;;3.35;;
35592;SDS011;64447;52.140;5.602;2022-12-07T11:54:32;7.40;;;3.10;;
35592;SDS011;64447;52.140;5.602;2022-12-07T11:57:07;8.45;;;2.63;;
35592;SDS011;64447;52.140;5.602;2022-12-07T11:59:45;8.23;;;2.38;;
35592;SDS011;64447;52.140;5.602;2022-12-07T12:02:21;6.60;;;2.88;;
35592;SDS011;64447;52.140;5.602;2022-12-07T12:07:29;5.68;;;2.63;;
35592;SDS011;64447;52.140;5.602;2022-12-07T12:09:58;19.92;;;4.43;;
35592;SDS011;64447;52.140;5.602;2022-12-07T12:15:16;13.75;;;2.70;;
35592;SDS011;64447;52.140;5.602;2022-12-07T12:21:09;20.02;;;4.00;;
35592;SDS011;64447;52.140;5.602;2022-12-07T12:26:07;25.75;;;5.10;;
35592;SDS011;64447;52.140;5.602;2022-12-07T12:28:40;25.15;;;3.63;;
35592;SDS011;64447;52.140;5.602;2022-12-07T12:33:50;9.43;;;2.55;;
35592;SDS011;64447;52.140;5.602;2022-12-07T12:36:43;9.88;;;3.55;;
35592;SDS011;64447;52.140;5.602;2022-12-07T12:39:14;7.15;;;2.55;;
35592;SDS011;64447;52.140;5.602;2022-12-07T12:51:50;8.90;;;2.45;;
35592;SDS011;64447;52.140;5.602;2022-12-07T12:54:27;11.50;;;3.13;;
35592;SDS011;64447;52.140;5.602;2022-12-07T13:02:22;6.65;;;2.92;;
35592;SDS011;64447;52.140;5.602;2022-12-07T13:04:55;4.32;;;1.75;;
35592;SDS011;64447;52.140;5.602;2022-12-07T13:15:50;6.03;;;2.13;;
35592;SDS011;64447;52.140;5.602;2022-12-07T13:18:39;8.15;;;3.00;;
35592;SDS011;64447;52.140;5.602;2022-12-07T13:23:38;5.65;;;1.52;;
35592;SDS011;64447;52.140;5.602;2022-12-07T13:26:43;4.57;;;2.15;;
35592;SDS011;64447;52.140;5.602;2022-12-07T13:31:39;4.70;;;1.50;;
35592;SDS011;64447;52.140;5.602;2022-12-07T13:36:58;7.28;;;2.25;;
35592;SDS011;64447;52.140;5.602;2022-12-07T13:39:35;5.57;;;1.73;;
35592;SDS011;64447;52.140;5.602;2022-12-07T13:44:52;5.13;;;2.47;;
35592;SDS011;64447;52.140;5.602;2022-12-07T13:47:20;6.03;;;2.53;;
35592;SDS011;64447;52.140;5.602;2022-12-07T13:49:57;5.15;;;2.53;;
35592;SDS011;64447;52.140;5.602;2022-12-07T13:52:29;6.95;;;2.35;;
35592;SDS011;64447;52.140;5.602;2022-12-07T13:54:57;8.25;;;3.53;;
35592;SDS011;64447;52.140;5.602;2022-12-07T13:57:26;10.07;;;2.85;;
35592;SDS011;64447;52.140;5.602;2022-12-07T13:59:53;5.88;;;2.60;;
35592;SDS011;64447;52.140;5.602;2022-12-07T14:02:24;12.23;;;4.65;;
35592;SDS011;64447;52.140;5.602;2022-12-07T14:05:12;6.20;;;3.47;;
35592;SDS011;64447;52.140;5.602;2022-12-07T14:11:12;7.55;;;3.33;;
35592;SDS011;64447;52.140;5.602;2022-12-07T14:13:34;8.40;;;3.53;;
35592;SDS011;64447;52.140;5.602;2022-12-07T14:16:05;5.95;;;2.78;;
35592;SDS011;64447;52.140;5.602;2022-12-07T14:18:43;6.72;;;3.25;;
35592;SDS011;64447;52.140;5.602;2022-12-07T14:23:34;5.97;;;2.40;;
35592;SDS011;64447;52.140;5.602;2022-12-07T14:28:44;7.68;;;2.83;;
35592;SDS011;64447;52.140;5.602;2022-12-07T14:31:11;4.10;;;2.97;;
35592;SDS011;64447;52.140;5.602;2022-12-07T14:33:42;3.05;;;2.15;;
35592;SDS011;64447;52.140;5.602;2022-12-07T14:36:11;3.88;;;2.03;;
35592;SDS011;64447;52.140;5.602;2022-12-07T14:38:38;10.18;;;3.47;;
35592;SDS011;64447;52.140;5.602;2022-12-07T14:41:04;6.47;;;3.30;;
35592;SDS011;64447;52.140;5.602;2022-12-07T14:43:56;5.22;;;2.63;;
35592;SDS011;64447;52.140;5.602;2022-12-07T14:46:22;9.73;;;4.38;;
35592;SDS011;64447;52.140;5.602;2022-12-07T14:48:47;8.07;;;4.13;;
35592;SDS011;64447;52.140;5.602;2022-12-07T14:51:13;11.75;;;4.88;;
35592;SDS011;64447;52.140;5.602;2022-12-07T14:53:39;7.97;;;4.28;;
35592;SDS011;64447;52.140;5.602;2022-12-07T14:56:09;8.32;;;4.22;;
35592;SDS011;64447;52.140;5.602;2022-12-07T14:58:34;6.65;;;4.03;;
35592;SDS011;64447;52.140;5.602;2022-12-07T15:01:00;7.70;;;3.88;;
35592;SDS011;64447;52.140;5.602;2022-12-07T15:03:26;5.78;;;4.13;;
35592;SDS011;64447;52.140;5.602;2022-12-07T15:05:52;9.18;;;4.95;;
35592;SDS011;64447;52.140;5.602;2022-12-07T15:08:17;11.60;;;5.05;;
35592;SDS011;64447;52.140;5.602;2022-12-07T15:10:43;15.27;;;4.80;;
35592;SDS011;64447;52.140;5.602;2022-12-07T15:13:09;9.45;;;5.35;;
35592;SDS011;64447;52.140;5.602;2022-12-07T15:15:54;10.70;;;5.88;;
35592;SDS011;64447;52.140;5.602;2022-12-07T15:18:20;11.98;;;6.85;;
35592;SDS011;64447;52.140;5.602;2022-12-07T15:20:47;7.93;;;5.03;;
35592;SDS011;64447;52.140;5.602;2022-12-07T15:23:13;10.00;;;5.95;;
35592;SDS011;64447;52.140;5.602;2022-12-07T15:25:43;13.43;;;7.13;;
35592;SDS011;64447;52.140;5.602;2022-12-07T15:28:09;6.88;;;4.65;;
35592;SDS011;64447;52.140;5.602;2022-12-07T15:30:39;13.20;;;7.05;;
35592;SDS011;64447;52.140;5.602;2022-12-07T15:33:07;8.32;;;4.63;;
35592;SDS011;64447;52.140;5.602;2022-12-07T15:35:33;9.27;;;4.47;;
35592;SDS011;64447;52.140;5.602;2022-12-07T15:37:58;9.60;;;4.22;;
35592;SDS011;64447;52.140;5.602;2022-12-07T15:40:24;10.55;;;5.57;;
35592;SDS011;64447;52.140;5.602;2022-12-07T15:42:49;11.57;;;4.65;;
35592;SDS011;64447;52.140;5.602;2022-12-07T15:45:15;14.63;;;5.88;;
35592;SDS011;64447;52.140;5.602;2022-12-07T15:47:41;10.40;;;4.38;;
35592;SDS011;64447;52.140;5.602;2022-12-07T15:50:09;11.98;;;5.57;;
35592;SDS011;64447;52.140;5.602;2022-12-07T15:52:38;14.90;;;8.48;;
35592;SDS011;64447;52.140;5.602;2022-12-07T15:55:04;12.48;;;8.75;;
35592;SDS011;64447;52.140;5.602;2022-12-07T15:57:31;10.60;;;6.68;;
35592;SDS011;64447;52.140;5.602;2022-12-07T15:59:57;21.70;;;19.70;;
35592;SDS011;64447;52.140;5.602;2022-12-07T16:02:23;14.30;;;10.10;;
35592;SDS011;64447;52.140;5.602;2022-12-07T16:04:49;11.40;;;6.70;;
35592;SDS011;64447;52.140;5.602;2022-12-07T16:07:15;9.15;;;5.15;;
35592;SDS011;64447;52.140;5.602;2022-12-07T16:09:42;7.63;;;4.88;;
35592;SDS011;64447;52.140;5.602;2022-12-07T16:12:08;6.20;;;4.32;;
35592;SDS011;64447;52.140;5.602;2022-12-07T16:14:34;7.97;;;4.38;;
35592;SDS011;64447;52.140;5.602;2022-12-07T16:17:01;5.53;;;4.18;;
35592;SDS011;64447;52.140;5.602;2022-12-07T16:19:26;5.47;;;4.38;;
35592;SDS011;64447;52.140;5.602;2022-12-07T16:21:52;12.35;;;6.75;;
35592;SDS011;64447;52.140;5.602;2022-12-07T16:24:18;9.30;;;5.60;;
35592;SDS011;64447;52.140;5.602;2022-12-07T16:26:43;6.45;;;4.43;;
35592;SDS011;64447;52.140;5.602;2022-12-07T16:29:13;10.07;;;4.88;;
35592;SDS011;64447;52.140;5.602;2022-12-07T16:31:39;9.05;;;5.53;;
35592;SDS011;64447;52.140;5.602;2022-12-07T16:34:05;7.13;;;5.03;;
35592;SDS011;64447;52.140;5.602;2022-12-07T16:36:30;8.18;;;4.88;;
35592;SDS011;64447;52.140;5.602;2022-12-07T16:38:57;8.23;;;6.13;;
35592;SDS011;64447;52.140;5.602;2022-12-07T16:41:24;6.20;;;5.00;;
35592;SDS011;64447;52.140;5.602;2022-12-07T16:43:50;9.25;;;5.07;;
35592;SDS011;64447;52.140;5.602;2022-12-07T16:46:16;7.80;;;4.35;;
35592;SDS011;64447;52.140;5.602;2022-12-07T16:48:42;8.68;;;5.05;;
35592;SDS011;64447;52.140;5.602;2022-12-07T16:51:09;12.20;;;7.78;;
35592;SDS011;64447;52.140;5.602;2022-12-07T16:53:36;13.30;;;8.00;;
35592;SDS011;64447;52.140;5.602;2022-12-07T16:56:04;12.98;;;9.05;;
35592;SDS011;64447;52.140;5.602;2022-12-07T16:58:34;15.68;;;11.70;;
35592;SDS011;64447;52.140;5.602;2022-12-07T17:00:59;15.43;;;11.35;;
35592;SDS011;64447;52.140;5.602;2022-12-07T17:03:37;14.48;;;9.88;;
35592;SDS011;64447;52.140;5.602;2022-12-07T17:06:03;14.60;;;9.80;;
35592;SDS011;64447;52.140;5.602;2022-12-07T17:08:28;14.13;;;9.85;;
35592;SDS011;64447;52.140;5.602;2022-12-07T17:10:54;14.93;;;10.00;;
35592;SDS011;64447;52.140;5.602;2022-12-07T17:13:19;12.05;;;9.48;;
35592;SDS011;64447;52.140;5.602;2022-12-07T17:16:05;10.35;;;9.05;;
35592;SDS011;64447;52.140;5.602;2022-12-07T17:18:34;12.43;;;8.88;;
35592;SDS011;64447;52.140;5.602;2022-12-07T17:21:04;14.25;;;10.80;;
35592;SDS011;64447;52.140;5.602;2022-12-07T17:23:31;18.00;;;12.18;;
35592;SDS011;64447;52.140;5.602;2022-12-07T17:28:34;16.42;;;13.57;;
35592;SDS011;64447;52.140;5.602;2022-12-07T17:31:04;21.55;;;12.35;;
35592;SDS011;64447;52.140;5.602;2022-12-07T17:33:32;21.50;;;12.80;;
35592;SDS011;64447;52.140;5.602;2022-12-07T17:35:58;15.82;;;11.77;;
35592;SDS011;64447;52.140;5.602;2022-12-07T17:38:24;14.50;;;9.07;;
35592;SDS011;64447;52.140;5.602;2022-12-07T17:40:50;13.10;;;8.23;;
35592;SDS011;64447;52.140;5.602;2022-12-07T17:43:16;10.82;;;7.97;;
35592;SDS011;64447;52.140;5.602;2022-12-07T17:45:41;10.90;;;7.72;;
35592;SDS011;64447;52.140;5.602;2022-12-07T17:48:07;10.48;;;7.55;;
35592;SDS011;64447;52.140;5.602;2022-12-07T17:50:32;10.07;;;8.45;;
35592;SDS011;64447;52.140;5.602;2022-12-07T17:53:16;14.65;;;11.00;;
35592;SDS011;64447;52.140;5.602;2022-12-07T17:55:42;16.77;;;9.13;;